sensor_id;sensor_type;location;lat;lon;timestamp;temperature;humidity
31639;DHT22;18248;51.522;7.020;2023-07-20T00:02:51;19.70;99.90
31639;DHT22;18248;51.522;7.020;2023-07-20T00:05:50;19.70;99.90
31639;DHT22;18248;51.522;7.020;2023-07-20T00:08:48;19.60;99.90
31639;DHT22;18248;51.522;7.020;2023-07-20T00:11:51;19.60;99.90
31639;DHT22;18248;51.522;7.020;2023-07-20T00:14:51;19.60;99.90
31639;DHT22;18248;51.522;7.020;2023-07-20T00:17:51;19.60;99.90
31639;DHT22;18248;51.522;7.020;2023-07-20T00:20:50;19.60;99.90
31639;DHT22;18248;51.522;7.020;2023-07-20T00:23:49;19.60;99.90
31639;DHT22;18248;51.522;7.020;2023-07-20T00:26:47;19.60;99.90
31639;DHT22;18248;51.522;7.020;2023-07-20T00:29:46;19.60;99.90
31639;DHT22;18248;51.522;7.020;2023-07-20T00:32:45;19.60;99.90
31639;DHT22;18248;51.522;7.020;2023-07-20T00:35:43;19.60;99.90
31639;DHT22;18248;51.522;7.020;2023-07-20T00:38:42;19.60;99.90
31639;DHT22;18248;51.522;7.020;2023-07-20T00:41:41;19.60;99.90
31639;DHT22;18248;51.522;7.020;2023-07-20T00:44:39;19.60;99.90
31639;DHT22;18248;51.522;7.020;2023-07-20T00:47:38;19.60;99.90
31639;DHT22;18248;51.522;7.020;2023-07-20T00:50:38;19.60;99.90
31639;DHT22;18248;51.522;7.020;2023-07-20T00:53:38;19.60;99.90
31639;DHT22;18248;51.522;7.020;2023-07-20T00:56:36;19.50;99.90
31639;DHT22;18248;51.522;7.020;2023-07-20T00:59:35;19.50;99.90
31639;DHT22;18248;51.522;7.020;2023-07-20T01:02:34;19.60;99.90
31639;DHT22;18248;51.522;7.020;2023-07-20T01:12:24;19.50;99.90
31639;DHT22;18248;51.522;7.020;2023-07-20T01:15:25;19.50;99.90
31639;DHT22;18248;51.522;7.020;2023-07-20T01:18:24;19.60;99.90
31639;DHT22;18248;51.522;7.020;2023-07-20T01:21:39;19.50;99.90
31639;DHT22;18248;51.522;7.020;2023-07-20T01:31:25;19.40;99.90
31639;DHT22;18248;51.522;7.020;2023-07-20T01:34:24;19.30;99.90
31639;DHT22;18248;51.522;7.020;2023-07-20T01:37:24;19.30;99.90
31639;DHT22;18248;51.522;7.020;2023-07-20T01:40:27;19.30;99.90
31639;DHT22;18248;51.522;7.020;2023-07-20T01:43:25;19.20;99.90
31639;DHT22;18248;51.522;7.020;2023-07-20T01:46:24;19.20;99.90
31639;DHT22;18248;51.522;7.020;2023-07-20T01:49:22;19.10;99.90
31639;DHT22;18248;51.522;7.020;2023-07-20T01:52:24;19.10;99.90
31639;DHT22;18248;51.522;7.020;2023-07-20T01:55:22;19.00;99.90
31639;DHT22;18248;51.522;7.020;2023-07-20T01:58:21;19.00;99.90
31639;DHT22;18248;51.522;7.020;2023-07-20T02:01:20;19.00;99.90
31639;DHT22;18248;51.522;7.020;2023-07-20T02:04:19;19.00;99.90
31639;DHT22;18248;51.522;7.020;2023-07-20T02:07:18;18.90;99.90
31639;DHT22;18248;51.522;7.020;2023-07-20T02:10:16;18.90;99.90
31639;DHT22;18248;51.522;7.020;2023-07-20T02:13:17;18.90;99.90
31639;DHT22;18248;51.522;7.020;2023-07-20T02:16:15;18.90;99.90
31639;DHT22;18248;51.522;7.020;2023-07-20T02:19:14;18.80;99.90
31639;DHT22;18248;51.522;7.020;2023-07-20T02:22:13;18.70;99.90
31639;DHT22;18248;51.522;7.020;2023-07-20T02:25:11;18.60;99.90
31639;DHT22;18248;51.522;7.020;2023-07-20T02:28:13;18.50;99.90
31639;DHT22;18248;51.522;7.020;2023-07-20T02:31:11;18.40;99.90
31639;DHT22;18248;51.522;7.020;2023-07-20T02:34:10;18.30;99.90
31639;DHT22;18248;51.522;7.020;2023-07-20T02:37:09;18.20;99.90
31639;DHT22;18248;51.522;7.020;2023-07-20T02:40:11;18.20;99.90
31639;DHT22;18248;51.522;7.020;2023-07-20T02:43:10;18.10;99.90
31639;DHT22;18248;51.522;7.020;2023-07-20T02:46:08;18.10;99.90
31639;DHT22;18248;51.522;7.020;2023-07-20T02:49:07;18.00;99.90
31639;DHT22;18248;51.522;7.020;2023-07-20T02:52:06;18.10;99.90
31639;DHT22;18248;51.522;7.020;2023-07-20T02:55:05;18.10;99.90
31639;DHT22;18248;51.522;7.020;2023-07-20T02:58:03;18.10;99.90
31639;DHT22;18248;51.522;7.020;2023-07-20T03:01:02;18.10;99.90
31639;DHT22;18248;51.522;7.020;2023-07-20T03:04:01;18.10;99.90
31639;DHT22;18248;51.522;7.020;2023-07-20T03:07:00;18.10;99.90
31639;DHT22;18248;51.522;7.020;2023-07-20T03:09:59;18.10;99.90
31639;DHT22;18248;51.522;7.020;2023-07-20T03:12:58;18.20;99.90
31639;DHT22;18248;51.522;7.020;2023-07-20T03:15:56;18.10;99.90
31639;DHT22;18248;51.522;7.020;2023-07-20T03:18:55;18.10;99.90
31639;DHT22;18248;51.522;7.020;2023-07-20T03:21:53;18.10;99.90
31639;DHT22;18248;51.522;7.020;2023-07-20T03:24:52;18.10;99.90
31639;DHT22;18248;51.522;7.020;2023-07-20T03:27:50;18.10;99.90
31639;DHT22;18248;51.522;7.020;2023-07-20T03:30:58;18.20;99.90
31639;DHT22;18248;51.522;7.020;2023-07-20T03:33:57;18.20;99.90
31639;DHT22;18248;51.522;7.020;2023-07-20T03:36:55;18.20;99.90
31639;DHT22;18248;51.522;7.020;2023-07-20T03:39:54;18.20;99.90
31639;DHT22;18248;51.522;7.020;2023-07-20T03:42:52;18.20;99.90
31639;DHT22;18248;51.522;7.020;2023-07-20T03:45:51;18.20;99.90
31639;DHT22;18248;51.522;7.020;2023-07-20T03:48:50;18.10;99.90
31639;DHT22;18248;51.522;7.020;2023-07-20T03:51:49;18.10;99.90
31639;DHT22;18248;51.522;7.020;2023-07-20T03:54:47;18.00;99.90
31639;DHT22;18248;51.522;7.020;2023-07-20T03:57:46;18.00;99.90
31639;DHT22;18248;51.522;7.020;2023-07-20T04:00:49;18.00;99.90
31639;DHT22;18248;51.522;7.020;2023-07-20T04:03:48;18.00;99.90
31639;DHT22;18248;51.522;7.020;2023-07-20T04:06:47;17.80;99.90
31639;DHT22;18248;51.522;7.020;2023-07-20T04:09:45;17.90;99.90
31639;DHT22;18248;51.522;7.020;2023-07-20T04:12:44;17.90;99.90
31639;DHT22;18248;51.522;7.020;2023-07-20T04:15:43;17.90;99.90
31639;DHT22;18248;51.522;7.020;2023-07-20T04:18:42;17.80;99.90
31639;DHT22;18248;51.522;7.020;2023-07-20T04:21:41;17.80;99.90
31639;DHT22;18248;51.522;7.020;2023-07-20T04:24:39;17.90;99.90
31639;DHT22;18248;51.522;7.020;2023-07-20T04:27:38;17.80;99.90
31639;DHT22;18248;51.522;7.020;2023-07-20T04:30:38;17.70;99.90
31639;DHT22;18248;51.522;7.020;2023-07-20T04:33:39;17.80;99.90
31639;DHT22;18248;51.522;7.020;2023-07-20T04:36:38;17.80;99.90
31639;DHT22;18248;51.522;7.020;2023-07-20T04:39:37;17.90;99.90
31639;DHT22;18248;51.522;7.020;2023-07-20T04:42:35;17.90;99.90
31639;DHT22;18248;51.522;7.020;2023-07-20T04:45:34;18.00;99.90
31639;DHT22;18248;51.522;7.020;2023-07-20T04:48:32;18.00;99.90
31639;DHT22;18248;51.522;7.020;2023-07-20T04:51:31;18.00;99.90
31639;DHT22;18248;51.522;7.020;2023-07-20T04:54:30;18.00;99.90
31639;DHT22;18248;51.522;7.020;2023-07-20T04:57:28;18.00;99.90
31639;DHT22;18248;51.522;7.020;2023-07-20T05:00:27;18.00;99.90
31639;DHT22;18248;51.522;7.020;2023-07-20T05:03:25;18.00;99.90
31639;DHT22;18248;51.522;7.020;2023-07-20T05:06:24;18.00;99.90
31639;DHT22;18248;51.522;7.020;2023-07-20T05:09:24;18.10;99.90
31639;DHT22;18248;51.522;7.020;2023-07-20T05:12:23;18.10;99.90
31639;DHT22;18248;51.522;7.020;2023-07-20T05:15:21;18.00;99.90
31639;DHT22;18248;51.522;7.020;2023-07-20T05:18:20;18.00;99.90
31639;DHT22;18248;51.522;7.020;2023-07-20T05:21:19;18.10;99.90
31639;DHT22;18248;51.522;7.020;2023-07-20T05:24:17;18.00;99.90
31639;DHT22;18248;51.522;7.020;2023-07-20T05:27:16;18.00;99.90
31639;DHT22;18248;51.522;7.020;2023-07-20T05:30:15;18.10;99.90
31639;DHT22;18248;51.522;7.020;2023-07-20T05:33:13;18.10;99.90
31639;DHT22;18248;51.522;7.020;2023-07-20T05:36:12;18.10;99.90
31639;DHT22;18248;51.522;7.020;2023-07-20T05:39:12;18.10;99.90
31639;DHT22;18248;51.522;7.020;2023-07-20T05:42:10;18.00;99.90
31639;DHT22;18248;51.522;7.020;2023-07-20T05:45:09;18.10;99.90
31639;DHT22;18248;51.522;7.020;2023-07-20T05:48:08;18.10;99.90
31639;DHT22;18248;51.522;7.020;2023-07-20T05:51:09;18.20;99.90
31639;DHT22;18248;51.522;7.020;2023-07-20T05:54:08;18.30;99.90
31639;DHT22;18248;51.522;7.020;2023-07-20T05:57:08;18.40;99.90
31639;DHT22;18248;51.522;7.020;2023-07-20T06:00:07;18.60;99.90
31639;DHT22;18248;51.522;7.020;2023-07-20T06:03:07;18.90;99.90
31639;DHT22;18248;51.522;7.020;2023-07-20T06:06:06;19.60;99.90
31639;DHT22;18248;51.522;7.020;2023-07-20T06:09:04;19.60;99.90
31639;DHT22;18248;51.522;7.020;2023-07-20T06:12:06;19.70;99.90
31639;DHT22;18248;51.522;7.020;2023-07-20T06:15:05;19.60;99.90
31639;DHT22;18248;51.522;7.020;2023-07-20T06:18:05;19.50;99.90
31639;DHT22;18248;51.522;7.020;2023-07-20T06:21:03;19.50;99.90
31639;DHT22;18248;51.522;7.020;2023-07-20T06:24:02;19.90;99.90
31639;DHT22;18248;51.522;7.020;2023-07-20T06:27:00;21.00;99.90
31639;DHT22;18248;51.522;7.020;2023-07-20T06:29:59;22.60;99.90
31639;DHT22;18248;51.522;7.020;2023-07-20T06:32:57;23.60;99.90
31639;DHT22;18248;51.522;7.020;2023-07-20T06:35:57;24.80;99.90
31639;DHT22;18248;51.522;7.020;2023-07-20T06:38:56;25.90;99.90
31639;DHT22;18248;51.522;7.020;2023-07-20T06:41:54;26.70;99.90
31639;DHT22;18248;51.522;7.020;2023-07-20T06:44:53;27.40;99.90
31639;DHT22;18248;51.522;7.020;2023-07-20T06:47:51;27.90;99.90
31639;DHT22;18248;51.522;7.020;2023-07-20T06:50:50;28.50;99.90
31639;DHT22;18248;51.522;7.020;2023-07-20T06:53:48;29.30;99.90
31639;DHT22;18248;51.522;7.020;2023-07-20T06:56:47;30.20;99.90
31639;DHT22;18248;51.522;7.020;2023-07-20T06:59:46;30.90;99.90
31639;DHT22;18248;51.522;7.020;2023-07-20T07:02:44;31.20;99.10
31639;DHT22;18248;51.522;7.020;2023-07-20T07:05:43;31.80;97.20
31639;DHT22;18248;51.522;7.020;2023-07-20T07:08:44;32.00;94.90
31639;DHT22;18248;51.522;7.020;2023-07-20T07:11:44;32.20;94.20
31639;DHT22;18248;51.522;7.020;2023-07-20T07:14:43;32.50;91.80
31639;DHT22;18248;51.522;7.020;2023-07-20T07:17:41;32.20;90.60
31639;DHT22;18248;51.522;7.020;2023-07-20T07:20:41;31.70;91.20
31639;DHT22;18248;51.522;7.020;2023-07-20T07:23:40;31.00;90.90
31639;DHT22;18248;51.522;7.020;2023-07-20T07:26:38;31.40;92.20
31639;DHT22;18248;51.522;7.020;2023-07-20T07:29:37;31.80;90.30
31639;DHT22;18248;51.522;7.020;2023-07-20T07:32:36;32.00;89.30
31639;DHT22;18248;51.522;7.020;2023-07-20T07:35:34;30.90;88.10
31639;DHT22;18248;51.522;7.020;2023-07-20T07:38:34;29.30;90.90
31639;DHT22;18248;51.522;7.020;2023-07-20T07:41:33;29.50;94.10
31639;DHT22;18248;51.522;7.020;2023-07-20T07:44:32;30.40;92.70
31639;DHT22;18248;51.522;7.020;2023-07-20T07:47:31;30.40;91.40
31639;DHT22;18248;51.522;7.020;2023-07-20T07:50:29;29.40;91.70
31639;DHT22;18248;51.522;7.020;2023-07-20T07:53:29;28.20;93.40
31639;DHT22;18248;51.522;7.020;2023-07-20T07:56:28;27.10;95.60
31639;DHT22;18248;51.522;7.020;2023-07-20T07:59:26;26.20;98.10
31639;DHT22;18248;51.522;7.020;2023-07-20T08:02:25;25.50;99.90
31639;DHT22;18248;51.522;7.020;2023-07-20T08:05:26;25.50;99.90
31639;DHT22;18248;51.522;7.020;2023-07-20T08:08:24;26.90;99.90
31639;DHT22;18248;51.522;7.020;2023-07-20T08:11:24;28.00;99.90
31639;DHT22;18248;51.522;7.020;2023-07-20T08:14:23;27.90;98.30
31639;DHT22;18248;51.522;7.020;2023-07-20T08:17:21;27.10;97.50
31639;DHT22;18248;51.522;7.020;2023-07-20T08:23:50;25.60;99.90
31639;DHT22;18248;51.522;7.020;2023-07-20T08:26:49;26.40;99.90
31639;DHT22;18248;51.522;7.020;2023-07-20T08:29:47;27.90;99.90
31639;DHT22;18248;51.522;7.020;2023-07-20T08:32:46;29.00;96.30
31639;DHT22;18248;51.522;7.020;2023-07-20T08:35:45;29.40;93.20
31639;DHT22;18248;51.522;7.020;2023-07-20T08:38:44;28.70;92.60
31639;DHT22;18248;51.522;7.020;2023-07-20T08:41:43;28.20;93.20
31639;DHT22;18248;51.522;7.020;2023-07-20T08:44:42;28.60;93.50
31639;DHT22;18248;51.522;7.020;2023-07-20T08:47:43;29.20;92.00
31639;DHT22;18248;51.522;7.020;2023-07-20T08:50:43;29.80;90.70
31639;DHT22;18248;51.522;7.020;2023-07-20T08:53:43;30.00;89.60
31639;DHT22;18248;51.522;7.020;2023-07-20T08:56:45;30.00;87.30
31639;DHT22;18248;51.522;7.020;2023-07-20T08:59:44;29.80;85.50
31639;DHT22;18248;51.522;7.020;2023-07-20T09:02:52;28.80;85.80
31639;DHT22;18248;51.522;7.020;2023-07-20T09:05:51;28.00;89.50
31639;DHT22;18248;51.522;7.020;2023-07-20T09:08:50;27.60;89.50
31639;DHT22;18248;51.522;7.020;2023-07-20T09:11:49;27.40;90.30
31639;DHT22;18248;51.522;7.020;2023-07-20T09:14:48;27.10;91.00
31639;DHT22;18248;51.522;7.020;2023-07-20T09:17:48;27.10;92.80
31639;DHT22;18248;51.522;7.020;2023-07-20T09:20:47;26.90;92.70
31639;DHT22;18248;51.522;7.020;2023-07-20T09:23:45;26.30;92.20
31639;DHT22;18248;51.522;7.020;2023-07-20T09:26:45;25.80;93.00
31639;DHT22;18248;51.522;7.020;2023-07-20T09:29:50;25.50;93.70
31639;DHT22;18248;51.522;7.020;2023-07-20T09:32:52;25.60;93.40
31639;DHT22;18248;51.522;7.020;2023-07-20T09:35:51;25.60;93.10
31639;DHT22;18248;51.522;7.020;2023-07-20T09:38:50;25.80;93.40
31639;DHT22;18248;51.522;7.020;2023-07-20T09:41:48;26.00;93.40
31639;DHT22;18248;51.522;7.020;2023-07-20T09:44:48;26.00;92.20
31639;DHT22;18248;51.522;7.020;2023-07-20T09:47:47;26.20;92.70
31639;DHT22;18248;51.522;7.020;2023-07-20T09:50:49;26.20;92.00
31639;DHT22;18248;51.522;7.020;2023-07-20T09:53:51;26.40;92.00
31639;DHT22;18248;51.522;7.020;2023-07-20T09:56:52;26.30;92.50
31639;DHT22;18248;51.522;7.020;2023-07-20T09:59:51;26.00;93.10
31639;DHT22;18248;51.522;7.020;2023-07-20T10:02:51;25.80;93.90
31639;DHT22;18248;51.522;7.020;2023-07-20T10:06:00;25.50;94.10
31639;DHT22;18248;51.522;7.020;2023-07-20T10:09:02;25.00;94.80
31639;DHT22;18248;51.522;7.020;2023-07-20T10:12:02;24.60;95.10
31639;DHT22;18248;51.522;7.020;2023-07-20T10:18:50;25.00;95.70
31639;DHT22;18248;51.522;7.020;2023-07-20T10:21:57;25.20;93.00
31639;DHT22;18248;51.522;7.020;2023-07-20T10:24:58;25.30;93.00
31639;DHT22;18248;51.522;7.020;2023-07-20T10:27:57;25.40;94.00
31639;DHT22;18248;51.522;7.020;2023-07-20T10:30:57;25.70;93.80
31639;DHT22;18248;51.522;7.020;2023-07-20T10:33:57;25.70;92.70
31639;DHT22;18248;51.522;7.020;2023-07-20T10:36:56;25.50;92.30
31639;DHT22;18248;51.522;7.020;2023-07-20T10:39:55;25.50;92.30
31639;DHT22;18248;51.522;7.020;2023-07-20T10:43:02;25.80;91.70
31639;DHT22;18248;51.522;7.020;2023-07-20T10:46:01;26.10;92.00
31639;DHT22;18248;51.522;7.020;2023-07-20T10:49:02;26.10;90.10
31639;DHT22;18248;51.522;7.020;2023-07-20T10:52:05;26.20;86.70
31639;DHT22;18248;51.522;7.020;2023-07-20T10:55:10;26.20;90.30
31639;DHT22;18248;51.522;7.020;2023-07-20T10:58:10;26.40;90.30
31639;DHT22;18248;51.522;7.020;2023-07-20T11:01:13;26.70;91.00
31639;DHT22;18248;51.522;7.020;2023-07-20T11:04:12;26.70;90.00
31639;DHT22;18248;51.522;7.020;2023-07-20T11:07:11;26.60;90.60
31639;DHT22;18248;51.522;7.020;2023-07-20T11:10:13;26.80;89.90
31639;DHT22;18248;51.522;7.020;2023-07-20T11:13:20;26.80;88.10
31639;DHT22;18248;51.522;7.020;2023-07-20T11:16:44;27.00;87.20
31639;DHT22;18248;51.522;7.020;2023-07-20T11:19:43;26.80;82.80
31639;DHT22;18248;51.522;7.020;2023-07-20T11:22:41;26.90;87.80
31639;DHT22;18248;51.522;7.020;2023-07-20T11:25:40;27.00;85.00
31639;DHT22;18248;51.522;7.020;2023-07-20T11:28:39;27.10;83.40
31639;DHT22;18248;51.522;7.020;2023-07-20T11:31:41;27.10;83.30
31639;DHT22;18248;51.522;7.020;2023-07-20T11:34:40;27.20;81.20
31639;DHT22;18248;51.522;7.020;2023-07-20T11:37:40;27.30;82.40
31639;DHT22;18248;51.522;7.020;2023-07-20T11:40:45;27.10;82.30
31639;DHT22;18248;51.522;7.020;2023-07-20T11:43:45;26.70;83.70
31639;DHT22;18248;51.522;7.020;2023-07-20T11:46:44;26.70;85.20
31639;DHT22;18248;51.522;7.020;2023-07-20T11:49:43;26.70;83.60
31639;DHT22;18248;51.522;7.020;2023-07-20T11:52:42;26.70;83.00
31639;DHT22;18248;51.522;7.020;2023-07-20T11:55:44;26.70;83.00
31639;DHT22;18248;51.522;7.020;2023-07-20T11:58:44;27.00;80.70
31639;DHT22;18248;51.522;7.020;2023-07-20T12:01:44;26.70;80.50
31639;DHT22;18248;51.522;7.020;2023-07-20T12:04:43;26.70;81.60
31639;DHT22;18248;51.522;7.020;2023-07-20T12:07:41;26.70;81.50
31639;DHT22;18248;51.522;7.020;2023-07-20T12:10:44;26.60;81.10
31639;DHT22;18248;51.522;7.020;2023-07-20T12:13:43;26.60;79.50
31639;DHT22;18248;51.522;7.020;2023-07-20T12:16:52;26.70;81.70
31639;DHT22;18248;51.522;7.020;2023-07-20T12:19:57;26.90;78.20
31639;DHT22;18248;51.522;7.020;2023-07-20T12:23:01;27.00;77.70
31639;DHT22;18248;51.522;7.020;2023-07-20T12:26:00;26.90;77.70
31639;DHT22;18248;51.522;7.020;2023-07-20T12:28:59;27.10;79.30
31639;DHT22;18248;51.522;7.020;2023-07-20T12:31:58;27.30;79.20
31639;DHT22;18248;51.522;7.020;2023-07-20T12:34:56;27.50;78.40
31639;DHT22;18248;51.522;7.020;2023-07-20T12:37:55;27.40;77.80
31639;DHT22;18248;51.522;7.020;2023-07-20T12:40:55;27.40;79.00
31639;DHT22;18248;51.522;7.020;2023-07-20T12:43:54;27.50;76.60
31639;DHT22;18248;51.522;7.020;2023-07-20T12:46:56;27.50;76.40
31639;DHT22;18248;51.522;7.020;2023-07-20T12:49:54;27.40;75.70
31639;DHT22;18248;51.522;7.020;2023-07-20T12:52:54;27.40;78.00
31639;DHT22;18248;51.522;7.020;2023-07-20T12:55:52;27.40;78.30
31639;DHT22;18248;51.522;7.020;2023-07-20T12:58:51;27.40;78.40
31639;DHT22;18248;51.522;7.020;2023-07-20T13:01:50;27.50;78.50
31639;DHT22;18248;51.522;7.020;2023-07-20T13:04:48;27.40;77.00
31639;DHT22;18248;51.522;7.020;2023-07-20T13:07:47;27.40;77.40
31639;DHT22;18248;51.522;7.020;2023-07-20T13:10:45;27.30;76.40
31639;DHT22;18248;51.522;7.020;2023-07-20T13:13:44;27.60;77.30
31639;DHT22;18248;51.522;7.020;2023-07-20T13:16:44;27.90;78.50
31639;DHT22;18248;51.522;7.020;2023-07-20T13:19:42;28.20;78.70
31639;DHT22;18248;51.522;7.020;2023-07-20T13:22:41;28.20;75.00
31639;DHT22;18248;51.522;7.020;2023-07-20T13:25:40;27.90;73.30
31639;DHT22;18248;51.522;7.020;2023-07-20T13:28:40;27.60;73.30
31639;DHT22;18248;51.522;7.020;2023-07-20T13:31:38;27.50;74.80
31639;DHT22;18248;51.522;7.020;2023-07-20T13:34:37;27.10;74.60
31639;DHT22;18248;51.522;7.020;2023-07-20T13:37:35;26.70;75.90
31639;DHT22;18248;51.522;7.020;2023-07-20T13:40:34;26.40;76.80
31639;DHT22;18248;51.522;7.020;2023-07-20T13:43:33;26.40;78.30
31639;DHT22;18248;51.522;7.020;2023-07-20T13:46:31;26.30;77.40
31639;DHT22;18248;51.522;7.020;2023-07-20T13:49:31;26.70;78.10
31639;DHT22;18248;51.522;7.020;2023-07-20T13:52:30;27.00;76.90
31639;DHT22;18248;51.522;7.020;2023-07-20T13:55:29;27.20;75.40
31639;DHT22;18248;51.522;7.020;2023-07-20T13:58:29;27.50;77.20
31639;DHT22;18248;51.522;7.020;2023-07-20T14:01:29;27.50;75.90
31639;DHT22;18248;51.522;7.020;2023-07-20T14:04:30;27.40;74.90
31639;DHT22;18248;51.522;7.020;2023-07-20T14:07:28;27.30;76.10
31639;DHT22;18248;51.522;7.020;2023-07-20T14:10:27;27.40;75.70
31639;DHT22;18248;51.522;7.020;2023-07-20T14:13:25;27.40;75.20
31639;DHT22;18248;51.522;7.020;2023-07-20T14:16:24;27.50;75.70
31639;DHT22;18248;51.522;7.020;2023-07-20T14:19:23;27.50;75.60
31639;DHT22;18248;51.522;7.020;2023-07-20T14:22:21;27.50;76.40
31639;DHT22;18248;51.522;7.020;2023-07-20T14:25:20;27.60;75.30
31639;DHT22;18248;51.522;7.020;2023-07-20T14:28:19;27.90;75.90
31639;DHT22;18248;51.522;7.020;2023-07-20T14:31:19;27.70;72.70
31639;DHT22;18248;51.522;7.020;2023-07-20T14:34:18;27.40;73.80
31639;DHT22;18248;51.522;7.020;2023-07-20T14:37:17;27.10;73.90
31639;DHT22;18248;51.522;7.020;2023-07-20T14:40:18;26.90;73.60
31639;DHT22;18248;51.522;7.020;2023-07-20T14:43:18;26.70;72.70
31639;DHT22;18248;51.522;7.020;2023-07-20T14:46:16;26.70;74.20
31639;DHT22;18248;51.522;7.020;2023-07-20T14:49:16;26.70;74.30
31639;DHT22;18248;51.522;7.020;2023-07-20T14:52:14;26.50;75.10
31639;DHT22;18248;51.522;7.020;2023-07-20T14:55:13;26.60;74.60
31639;DHT22;18248;51.522;7.020;2023-07-20T14:58:12;26.50;74.10
31639;DHT22;18248;51.522;7.020;2023-07-20T15:01:11;26.70;73.90
31639;DHT22;18248;51.522;7.020;2023-07-20T15:04:09;27.00;73.20
31639;DHT22;18248;51.522;7.020;2023-07-20T15:07:08;27.30;74.70
31639;DHT22;18248;51.522;7.020;2023-07-20T15:10:07;27.50;75.70
31639;DHT22;18248;51.522;7.020;2023-07-20T15:13:05;27.50;74.40
31639;DHT22;18248;51.522;7.020;2023-07-20T15:16:04;27.50;74.40
31639;DHT22;18248;51.522;7.020;2023-07-20T15:19:02;27.50;74.70
31639;DHT22;18248;51.522;7.020;2023-07-20T15:22:04;27.40;74.90
31639;DHT22;18248;51.522;7.020;2023-07-20T15:25:04;27.30;75.40
31639;DHT22;18248;51.522;7.020;2023-07-20T15:28:02;27.10;75.40
31639;DHT22;18248;51.522;7.020;2023-07-20T15:31:02;26.80;75.40
31639;DHT22;18248;51.522;7.020;2023-07-20T15:34:01;26.70;76.00
31639;DHT22;18248;51.522;7.020;2023-07-20T15:36:59;26.60;76.50
31639;DHT22;18248;51.522;7.020;2023-07-20T15:39:58;26.50;75.50
31639;DHT22;18248;51.522;7.020;2023-07-20T15:42:58;26.30;75.50
31639;DHT22;18248;51.522;7.020;2023-07-20T15:49:38;26.50;73.70
31639;DHT22;18248;51.522;7.020;2023-07-20T15:52:38;26.70;76.70
31639;DHT22;18248;51.522;7.020;2023-07-20T15:55:37;26.70;77.30
31639;DHT22;18248;51.522;7.020;2023-07-20T15:58:36;26.80;75.60
31639;DHT22;18248;51.522;7.020;2023-07-20T16:01:34;26.90;75.60
31639;DHT22;18248;51.522;7.020;2023-07-20T16:04:33;27.20;76.50
31639;DHT22;18248;51.522;7.020;2023-07-20T16:07:32;27.50;75.50
31639;DHT22;18248;51.522;7.020;2023-07-20T16:10:32;27.60;73.20
31639;DHT22;18248;51.522;7.020;2023-07-20T16:13:31;27.50;72.20
31639;DHT22;18248;51.522;7.020;2023-07-20T16:16:30;27.70;74.20
31639;DHT22;18248;51.522;7.020;2023-07-20T16:19:31;27.70;74.50
31639;DHT22;18248;51.522;7.020;2023-07-20T16:22:30;27.70;74.60
31639;DHT22;18248;51.522;7.020;2023-07-20T16:25:28;27.70;74.40
31639;DHT22;18248;51.522;7.020;2023-07-20T16:28:27;27.60;75.00
31639;DHT22;18248;51.522;7.020;2023-07-20T16:31:25;27.50;74.10
31639;DHT22;18248;51.522;7.020;2023-07-20T16:34:24;27.50;74.30
31639;DHT22;18248;51.522;7.020;2023-07-20T16:37:23;27.50;72.90
31639;DHT22;18248;51.522;7.020;2023-07-20T16:40:22;27.50;72.90
31639;DHT22;18248;51.522;7.020;2023-07-20T16:43:22;27.30;73.80
31639;DHT22;18248;51.522;7.020;2023-07-20T16:46:22;27.20;73.70
31639;DHT22;18248;51.522;7.020;2023-07-20T16:49:21;27.20;74.60
31639;DHT22;18248;51.522;7.020;2023-07-20T16:52:19;27.10;73.40
31639;DHT22;18248;51.522;7.020;2023-07-20T16:55:19;27.10;74.80
31639;DHT22;18248;51.522;7.020;2023-07-20T16:58:23;27.20;73.20
31639;DHT22;18248;51.522;7.020;2023-07-20T17:01:22;27.10;71.50
31639;DHT22;18248;51.522;7.020;2023-07-20T17:04:20;27.10;74.00
31639;DHT22;18248;51.522;7.020;2023-07-20T17:07:19;27.10;73.70
31639;DHT22;18248;51.522;7.020;2023-07-20T17:10:17;27.10;74.80
31639;DHT22;18248;51.522;7.020;2023-07-20T17:13:16;27.10;75.40
31639;DHT22;18248;51.522;7.020;2023-07-20T17:16:15;27.20;75.80
31639;DHT22;18248;51.522;7.020;2023-07-20T17:19:14;27.20;74.50
31639;DHT22;18248;51.522;7.020;2023-07-20T17:22:13;27.00;75.00
31639;DHT22;18248;51.522;7.020;2023-07-20T17:25:11;26.80;75.60
31639;DHT22;18248;51.522;7.020;2023-07-20T17:28:10;26.70;75.40
31639;DHT22;18248;51.522;7.020;2023-07-20T17:31:09;26.70;75.30
31639;DHT22;18248;51.522;7.020;2023-07-20T17:34:07;26.60;75.20
31639;DHT22;18248;51.522;7.020;2023-07-20T17:37:06;26.40;75.40
31639;DHT22;18248;51.522;7.020;2023-07-20T17:40:09;26.40;74.30
31639;DHT22;18248;51.522;7.020;2023-07-20T17:43:08;26.20;74.70
31639;DHT22;18248;51.522;7.020;2023-07-20T17:46:08;26.10;75.90
31639;DHT22;18248;51.522;7.020;2023-07-20T17:49:06;26.10;76.60
31639;DHT22;18248;51.522;7.020;2023-07-20T17:52:05;26.00;75.90
31639;DHT22;18248;51.522;7.020;2023-07-20T17:55:04;25.90;76.40
31639;DHT22;18248;51.522;7.020;2023-07-20T17:58:03;25.80;76.80
31639;DHT22;18248;51.522;7.020;2023-07-20T18:01:01;25.60;77.00
31639;DHT22;18248;51.522;7.020;2023-07-20T18:04:00;25.50;77.60
31639;DHT22;18248;51.522;7.020;2023-07-20T18:06:59;25.50;79.30
31639;DHT22;18248;51.522;7.020;2023-07-20T18:09:57;25.40;78.70
31639;DHT22;18248;51.522;7.020;2023-07-20T18:12:56;25.40;79.60
31639;DHT22;18248;51.522;7.020;2023-07-20T18:15:55;25.30;80.40
31639;DHT22;18248;51.522;7.020;2023-07-20T18:18:56;25.20;80.20
31639;DHT22;18248;51.522;7.020;2023-07-20T18:21:55;25.10;80.50
31639;DHT22;18248;51.522;7.020;2023-07-20T18:24:54;25.10;81.10
31639;DHT22;18248;51.522;7.020;2023-07-20T18:27:53;24.90;81.30
31639;DHT22;18248;51.522;7.020;2023-07-20T18:30:51;24.90;81.80
31639;DHT22;18248;51.522;7.020;2023-07-20T18:33:51;24.80;82.40
31639;DHT22;18248;51.522;7.020;2023-07-20T18:36:51;24.80;83.20
31639;DHT22;18248;51.522;7.020;2023-07-20T18:39:50;24.80;83.10
31639;DHT22;18248;51.522;7.020;2023-07-20T18:42:49;24.80;83.20
31639;DHT22;18248;51.522;7.020;2023-07-20T18:45:47;24.70;82.80
31639;DHT22;18248;51.522;7.020;2023-07-20T18:48:47;24.60;83.40
31639;DHT22;18248;51.522;7.020;2023-07-20T18:51:46;24.60;83.90
31639;DHT22;18248;51.522;7.020;2023-07-20T18:54:47;24.50;84.20
31639;DHT22;18248;51.522;7.020;2023-07-20T18:57:45;24.50;85.20
31639;DHT22;18248;51.522;7.020;2023-07-20T19:00:45;24.40;86.10
31639;DHT22;18248;51.522;7.020;2023-07-20T19:03:44;24.40;87.10
31639;DHT22;18248;51.522;7.020;2023-07-20T19:06:42;24.30;86.50
31639;DHT22;18248;51.522;7.020;2023-07-20T19:09:41;24.20;86.40
31639;DHT22;18248;51.522;7.020;2023-07-20T19:12:40;24.10;87.10
31639;DHT22;18248;51.522;7.020;2023-07-20T19:15:39;24.20;88.00
31639;DHT22;18248;51.522;7.020;2023-07-20T19:18:38;24.10;88.70